Port Imperial New Jersey — WBR3133 — position and weather

sailwx.info

Track history (hours):
 
Tides and Currents Weather Stations Pressure Air Temp Water Temp Dewpoint Dewpoint Depression Visibility Wind Speed Wind Dir Waves Ship Positions

Port Imperial New Jersey

Owner: PORT IMPERIAL FERRY CORP, WEEHAWKEN, NJ. More information available from US FCC via Universal Licensing System and Coast Guard Vessel Documentation Center.

Last reported at 2016-Aug-30 16:33 UTC. Time now 2016-Aug-31 02:19 UTC.
Position N 40°46' W 074°00'.

Length 31 m.

Type: Passenger vessel. MMSI: 366990550.

Date/timePositionNaut miles runAvg speedWind from/ knotsBaromVisibWave heightAir tempDewpointWater temp
2016-Aug-30 16:33N 40°46' W 074°00'0 0.0
2016-Aug-30 15:33N 40°46' W 074°00'1 0.8
2016-Aug-30 14:33N 40°46' W 074°01'1 0.9
2016-Aug-30 13:33N 40°45' W 074°01'0 0.1
2016-Aug-30 12:34N 40°46' W 074°01'0 0.1
2016-Aug-30 11:33N 40°45' W 074°01'1 0.0
2016-Aug-29 14:20N 40°46' W 074°01'1 0.9
2016-Aug-29 13:33N 40°46' W 074°00'0 0.0
2016-Aug-29 12:33N 40°46' W 074°00'0 0.0
2016-Aug-29 11:33N 40°46' W 074°00'1 0.6
2016-Aug-29 10:32N 40°46' W 074°01'  
2016-Aug-26 16:33N 40°45' W 074°01'1 1.5
2016-Aug-26 15:33N 40°46' W 074°01'0 0.1
2016-Aug-26 14:33N 40°46' W 074°01'3 2.9
2016-Aug-26 13:34N 40°43' W 074°01'0 0.3
2016-Aug-26 12:33N 40°44' W 074°01'0 0.2
2016-Aug-26 11:34N 40°44' W 074°01'0 0.2
2016-Aug-26 10:34N 40°44' W 074°01'3 0.3
2016-Aug-26 00:04N 40°47' W 074°01'1 1.9
2016-Aug-25 23:33N 40°46' W 074°01'0 0.2
2016-Aug-25 22:33N 40°45' W 074°01'1 0.5
2016-Aug-25 21:33N 40°45' W 074°01'1 0.6
2016-Aug-25 20:33N 40°46' W 074°01'0 0.1
2016-Aug-25 19:33N 40°46' W 074°01'0 0.1
2016-Aug-25 18:33N 40°45' W 074°01'1 0.8
2016-Aug-25 17:33N 40°46' W 074°01'1 0.7
2016-Aug-25 16:33N 40°46' W 074°00'0 0.0
2016-Aug-25 15:34N 40°46' W 074°00'0 0.0
2016-Aug-25 14:34N 40°46' W 074°00'0 0.5
2016-Aug-25 13:34N 40°45' W 074°01'0 0.1
2016-Aug-25 12:33N 40°45' W 074°01'0 0.2
2016-Aug-25 11:33N 40°45' W 074°01'0 0.0
2016-Aug-25 00:34N 40°46' W 074°00'0 0.4
2016-Aug-24 23:33N 40°45' W 074°01'0 0.0
2016-Aug-24 22:33N 40°45' W 074°01'0 0.1
2016-Aug-24 21:34N 40°46' W 074°01'0 0.0
2016-Aug-24 20:34N 40°46' W 074°01'1 1.0
2016-Aug-24 19:33N 40°47' W 074°01'0 0.0
2016-Aug-24 18:33N 40°47' W 074°01'0 0.0
2016-Aug-24 17:33N 40°47' W 074°01'1 1.0
2016-Aug-24 16:33N 40°46' W 074°00'0 0.1
2016-Aug-24 15:34N 40°46' W 074°00'1 0.8
2016-Aug-24 14:33N 40°46' W 074°01'0 0.0
2016-Aug-23 17:29N 40°47' W 074°01'1 1.4
2016-Aug-23 16:33N 40°45' W 074°01'0 0.5
2016-Aug-23 15:33N 40°46' W 074°00'0 0.0
2016-Aug-23 14:33N 40°46' W 074°00'0 0.2
2016-Aug-23 13:34N 40°46' W 074°00'1 0.7
2016-Aug-23 12:34N 40°46' W 074°01'0 0.4
2016-Aug-23 11:33N 40°45' W 074°01'1 0.1
2016-Aug-23 00:20N 40°47' W 074°01'1 1.4
2016-Aug-22 23:33N 40°45' W 074°01'0 0.5
2016-Aug-22 22:32N 40°46' W 074°01'0 0.4
2016-Aug-22 21:33N 40°45' W 074°01'0 0.0
2016-Aug-22 20:33N 40°45' W 074°01'1 0.2
2016-Aug-22 16:33N 40°46' W 074°01'0 0.1
2016-Aug-22 14:32N 40°46' W 074°01'1 0.9
2016-Aug-22 13:34N 40°45' W 074°01'1 0.5
2016-Aug-22 12:23N 40°46' W 074°00'0 0.3
2016-Aug-22 11:34N 40°45' W 074°01'1 0.1
2016-Aug-21 23:31N 40°46' W 074°00'5 5.0
2016-Aug-21 22:33N 40°42' W 074°01'0 0.0
2016-Aug-21 21:33N 40°42' W 074°01'0 0.4
2016-Aug-21 20:33N 40°42' W 074°01'0 0.0
2016-Aug-21 19:33N 40°42' W 074°01'3 3.1
2016-Aug-21 18:33N 40°45' W 074°01'1 0.5
2016-Aug-21 17:32N 40°46' W 074°01'0 0.1
2016-Aug-21 16:32N 40°46' W 074°00'0 0.1
2016-Aug-21 15:30N 40°46' W 074°00'0 0.1
2016-Aug-21 13:30N 40°46' W 074°00'0 0.4
2016-Aug-21 12:32N 40°46' W 074°01'0 0.0
2016-Aug-21 01:28N 40°47' W 074°01'4 4.3
2016-Aug-21 00:33N 40°43' W 073°58'0 0.0
2016-Aug-20 23:33N 40°43' W 073°58'0 0.4
2016-Aug-20 22:34N 40°43' W 073°58'0 0.4
2016-Aug-20 21:33N 40°43' W 073°58'2 1.7
2016-Aug-20 20:33N 40°42' W 073°60'2 1.8
2016-Aug-20 19:34N 40°43' W 073°58'3 2.8
2016-Aug-20 18:33N 40°45' W 074°01'1 0.6
2016-Aug-20 17:30N 40°46' W 074°01'  
Track history (hours):
 
Tides and Currents Weather Stations Pressure Air Temp Water Temp Dewpoint Dewpoint Depression Visibility Wind Speed Wind Dir Waves Ship Positions

Port Imperial New Jersey

Owner: PORT IMPERIAL FERRY CORP, WEEHAWKEN, NJ. More information available from US FCC via Universal Licensing System and Coast Guard Vessel Documentation Center.

Last reported at 2016-Aug-30 16:33 UTC. Time now 2016-Aug-31 02:19 UTC.
Position N 40°46' W 074°00'.

Length 31 m.

Type: Passenger vessel. MMSI: 366990550.

Date/timePositionNaut miles runAvg speedWind from/ knotsBaromVisibWave heightAir tempDewpointWater temp
2016-Aug-30 16:33N 40°46' W 074°00'0 0.0
2016-Aug-30 15:33N 40°46' W 074°00'1 0.8
2016-Aug-30 14:33N 40°46' W 074°01'1 0.9
2016-Aug-30 13:33N 40°45' W 074°01'0 0.1
2016-Aug-30 12:34N 40°46' W 074°01'0 0.1
2016-Aug-30 11:33N 40°45' W 074°01'1 0.0
2016-Aug-29 14:20N 40°46' W 074°01'1 0.9
2016-Aug-29 13:33N 40°46' W 074°00'0 0.0
2016-Aug-29 12:33N 40°46' W 074°00'0 0.0
2016-Aug-29 11:33N 40°46' W 074°00'1 0.6
2016-Aug-29 10:32N 40°46' W 074°01'  
2016-Aug-26 16:33N 40°45' W 074°01'1 1.5
2016-Aug-26 15:33N 40°46' W 074°01'0 0.1
2016-Aug-26 14:33N 40°46' W 074°01'3 2.9
2016-Aug-26 13:34N 40°43' W 074°01'0 0.3
2016-Aug-26 12:33N 40°44' W 074°01'0 0.2
2016-Aug-26 11:34N 40°44' W 074°01'0 0.2
2016-Aug-26 10:34N 40°44' W 074°01'3 0.3
2016-Aug-26 00:04N 40°47' W 074°01'1 1.9
2016-Aug-25 23:33N 40°46' W 074°01'0 0.2
2016-Aug-25 22:33N 40°45' W 074°01'1 0.5
2016-Aug-25 21:33N 40°45' W 074°01'1 0.6
2016-Aug-25 20:33N 40°46' W 074°01'0 0.1
2016-Aug-25 19:33N 40°46' W 074°01'0 0.1
2016-Aug-25 18:33N 40°45' W 074°01'1 0.8
2016-Aug-25 17:33N 40°46' W 074°01'1 0.7
2016-Aug-25 16:33N 40°46' W 074°00'0 0.0
2016-Aug-25 15:34N 40°46' W 074°00'0 0.0
2016-Aug-25 14:34N 40°46' W 074°00'0 0.5
2016-Aug-25 13:34N 40°45' W 074°01'0 0.1
2016-Aug-25 12:33N 40°45' W 074°01'0 0.2
2016-Aug-25 11:33N 40°45' W 074°01'0 0.0
2016-Aug-25 00:34N 40°46' W 074°00'0 0.4
2016-Aug-24 23:33N 40°45' W 074°01'0 0.0
2016-Aug-24 22:33N 40°45' W 074°01'0 0.1
2016-Aug-24 21:34N 40°46' W 074°01'0 0.0
2016-Aug-24 20:34N 40°46' W 074°01'1 1.0
2016-Aug-24 19:33N 40°47' W 074°01'0 0.0
2016-Aug-24 18:33N 40°47' W 074°01'0 0.0
2016-Aug-24 17:33N 40°47' W 074°01'1 1.0
2016-Aug-24 16:33N 40°46' W 074°00'0 0.1
2016-Aug-24 15:34N 40°46' W 074°00'1 0.8
2016-Aug-24 14:33N 40°46' W 074°01'0 0.0
2016-Aug-23 17:29N 40°47' W 074°01'1 1.4
2016-Aug-23 16:33N 40°45' W 074°01'0 0.5
2016-Aug-23 15:33N 40°46' W 074°00'0 0.0
2016-Aug-23 14:33N 40°46' W 074°00'0 0.2
2016-Aug-23 13:34N 40°46' W 074°00'1 0.7
2016-Aug-23 12:34N 40°46' W 074°01'0 0.4
2016-Aug-23 11:33N 40°45' W 074°01'1 0.1
2016-Aug-23 00:20N 40°47' W 074°01'1 1.4
2016-Aug-22 23:33N 40°45' W 074°01'0 0.5
2016-Aug-22 22:32N 40°46' W 074°01'0 0.4
2016-Aug-22 21:33N 40°45' W 074°01'0 0.0
2016-Aug-22 20:33N 40°45' W 074°01'1 0.2
2016-Aug-22 16:33N 40°46' W 074°01'0 0.1
2016-Aug-22 14:32N 40°46' W 074°01'1 0.9
2016-Aug-22 13:34N 40°45' W 074°01'1 0.5
2016-Aug-22 12:23N 40°46' W 074°00'0 0.3
2016-Aug-22 11:34N 40°45' W 074°01'1 0.1
2016-Aug-21 23:31N 40°46' W 074°00'5 5.0
2016-Aug-21 22:33N 40°42' W 074°01'0 0.0
2016-Aug-21 21:33N 40°42' W 074°01'0 0.4
2016-Aug-21 20:33N 40°42' W 074°01'0 0.0
2016-Aug-21 19:33N 40°42' W 074°01'3 3.1
2016-Aug-21 18:33N 40°45' W 074°01'1 0.5
2016-Aug-21 17:32N 40°46' W 074°01'0 0.1
2016-Aug-21 16:32N 40°46' W 074°00'0 0.1
2016-Aug-21 15:30N 40°46' W 074°00'0 0.1
2016-Aug-21 13:30N 40°46' W 074°00'0 0.4
2016-Aug-21 12:32N 40°46' W 074°01'0 0.0
2016-Aug-21 01:28N 40°47' W 074°01'4 4.3
2016-Aug-21 00:33N 40°43' W 073°58'0 0.0
2016-Aug-20 23:33N 40°43' W 073°58'0 0.4
2016-Aug-20 22:34N 40°43' W 073°58'0 0.4
2016-Aug-20 21:33N 40°43' W 073°58'2 1.7
2016-Aug-20 20:33N 40°42' W 073°60'2 1.8
2016-Aug-20 19:34N 40°43' W 073°58'3 2.8
2016-Aug-20 18:33N 40°45' W 074°01'1 0.6
2016-Aug-20 17:30N 40°46' W 074°01'  

Dump ship's entire track history